Aérodrome :
LOGIN :

S'inscrire | Disclaimer

   EN    FR    IT 

 










Légende :    VFR   VFR Marginal   IFR   IFR Intensif   IFR Très Intensif
Visi : 
Plafond : 
>= 8 km
>= 3000ft
5 à 8 km
1000 à 3000 ft
1500m à 5 km
500 à 1000 ft
800 à 1500m
200 à 500 ft
< 800m
< 200 ft
Symboles :   Orages  Brouillard  Fortes neiges  Fortes précipitations  Vent > 20 kt
SIGMETs :   Divers  Orages  Givrage  Turbulence  Onde Orograph.  Cendres Volcan.







- Altitude de l'aérodrome : 1079 ft


ETIK - Illesheim Air Base

DERNIER METAR :
  • 191758Z AUTO 25007KT 9999 CLR 17/09 A3013 RMK AO2 SLP200 T01710090 10205 20171 52005

METARs EXPIRÉS :
  • 191658Z AUTO 28009KT 9999 SCT055 19/09 A3012 RMK AO2 SLP195 T01940088
  • 191558Z AUTO 26008KT 9999 SCT060 20/10 A3012 RMK AO2 SLP193 T02010102

TAF AMD TAF ETIK
Valide du 18 à 18h jusqu'au 19 à 19h UTC


181800Z 1818/1919 28012G20KT 8000 -SHRA SCT050 BKN080 QNH2988INS
TEMPO 1818/1819 28025G35KT 6000 -TSRA BKN050CB
BECMG 1822/1823 27012KT 8000 -SHRA BKN010 QNH2991INS
BECMG 1907/1908 27012KT 9999 NSW SCT020 QNH3006INS TX30/1912Z TN14/1903Z LAST NO AMDS AFT 1818 NEXT 2021
Pas de NOTAMs connus pour ce terrain.



MET'MAP, la Météo Aéronautique d'un coup d'oeil ! - Copyright ORBIFLY Décembre 2007 - Disclaimer

ORBIFLY MET'MAP TEAM :

Programmation & Développement : Alexandra Zaïnal
Conception & Développement : Baudouin d'Aumeries
Co-Programmation & Développement : Marc-Olivier Méhu
Soutien technique & logistique : Manuel Goepfert

Contact : metmap@orbifly.com




SOURCES & CREDITS :

   NOAA